createdAt,value
2022-10-28T00:00:40.126Z,22.40
2022-10-28T00:01:43.987Z,22.44
2022-10-28T00:02:37.545Z,22.46
2022-10-28T00:03:31.032Z,22.43
2022-10-28T00:04:24.615Z,22.41
2022-10-28T00:05:08.239Z,22.41
2022-10-28T00:06:12.643Z,22.37
2022-10-28T00:07:06.263Z,22.44
2022-10-28T00:07:59.701Z,22.44
2022-10-28T00:08:43.355Z,22.46
2022-10-28T00:09:36.896Z,22.46
2022-10-28T00:10:20.547Z,22.49
2022-10-28T00:11:14.093Z,22.38
2022-10-28T00:12:07.636Z,22.41
2022-10-28T00:13:01.197Z,22.44
2022-10-28T00:13:54.738Z,22.41
2022-10-28T00:14:48.293Z,22.40
2022-10-28T00:15:41.837Z,22.44
2022-10-28T00:16:35.415Z,22.41
2022-10-28T00:17:39.190Z,22.43
2022-10-28T00:18:22.868Z,22.48
2022-10-28T00:19:16.407Z,22.46
2022-10-28T00:20:00.088Z,22.43
2022-10-28T00:20:53.614Z,22.40
2022-10-28T00:21:47.150Z,22.37
2022-10-28T00:22:40.725Z,22.48
2022-10-28T00:23:34.270Z,22.43
2022-10-28T00:24:27.826Z,22.44
2022-10-28T00:25:21.354Z,22.43
2022-10-28T00:26:14.887Z,22.41
2022-10-28T00:27:08.418Z,22.41
2022-10-28T00:28:01.940Z,22.44
2022-10-28T00:28:55.465Z,22.49
2022-10-28T00:29:49.010Z,22.43
2022-10-28T00:30:42.552Z,22.41
2022-10-28T00:31:36.126Z,22.38
2022-10-28T00:32:29.679Z,22.48
2022-10-28T00:33:23.234Z,22.41
2022-10-28T00:34:16.758Z,22.37
2022-10-28T00:35:10.289Z,22.34
2022-10-28T00:36:04.435Z,22.44
2022-10-28T00:36:57.362Z,22.38
2022-10-28T00:37:50.908Z,22.44
2022-10-28T00:38:44.431Z,22.40
2022-10-28T00:39:37.959Z,22.40
2022-10-28T00:40:31.490Z,22.37
2022-10-28T00:41:25.014Z,22.36
2022-10-28T00:42:18.541Z,22.38
2022-10-28T00:43:12.080Z,22.37
2022-10-28T00:44:05.662Z,22.43
2022-10-28T00:45:09.453Z,22.44
2022-10-28T00:46:02.985Z,22.40
2022-10-28T00:46:56.510Z,22.40
2022-10-28T00:47:50.279Z,22.43
2022-10-28T00:48:43.573Z,22.46
2022-10-28T00:49:37.123Z,22.44
2022-10-28T00:50:30.648Z,22.44
2022-10-28T00:51:24.181Z,22.43
2022-10-28T00:52:17.728Z,22.36
2022-10-28T00:53:11.288Z,22.40
2022-10-28T00:54:04.791Z,22.40
2022-10-28T00:54:58.324Z,22.34
2022-10-28T00:55:51.862Z,22.36
2022-10-28T00:56:45.426Z,22.37
2022-10-28T00:57:38.960Z,22.33
2022-10-28T00:58:32.492Z,22.38
2022-10-28T00:59:26.022Z,22.36
2022-10-28T01:00:19.558Z,22.41
2022-10-28T01:01:13.139Z,22.48
2022-10-28T01:02:06.719Z,22.34
2022-10-28T01:03:00.157Z,22.40
2022-10-28T01:03:53.700Z,22.30
2022-10-28T01:04:47.236Z,22.43
2022-10-28T01:05:40.805Z,22.37
2022-10-28T01:06:34.362Z,22.36
2022-10-28T01:07:27.896Z,22.34
2022-10-28T01:08:21.449Z,22.37
2022-10-28T01:09:15.042Z,22.43
2022-10-28T01:10:08.523Z,22.34
2022-10-28T01:11:02.071Z,22.31
2022-10-28T01:11:55.594Z,22.37
2022-10-28T01:12:49.131Z,22.37
2022-10-28T01:13:42.660Z,22.34
2022-10-28T01:14:46.474Z,22.34
2022-10-28T01:15:40.013Z,22.44
2022-10-28T01:16:33.544Z,22.30
2022-10-28T01:17:27.074Z,22.28
2022-10-28T01:18:20.600Z,22.31
2022-10-28T01:19:04.275Z,22.31
2022-10-28T01:19:57.805Z,22.30
2022-10-28T01:20:51.335Z,22.34
2022-10-28T01:21:44.905Z,22.38
2022-10-28T01:22:38.439Z,22.46
2022-10-28T01:23:32.036Z,22.41
2022-10-28T01:24:25.593Z,22.40
2022-10-28T01:25:19.125Z,22.34
2022-10-28T01:26:12.685Z,22.38
2022-10-28T01:27:06.204Z,22.38
2022-10-28T01:27:49.863Z,22.44
2022-10-28T01:28:43.398Z,22.33
2022-10-28T01:29:36.937Z,22.36
2022-10-28T01:30:30.486Z,22.33
2022-10-28T01:31:24.022Z,22.33
2022-10-28T01:32:17.556Z,22.41
2022-10-28T01:33:11.098Z,22.27
2022-10-28T01:34:04.646Z,22.38
2022-10-28T01:34:58.195Z,22.28
2022-10-28T01:35:51.728Z,22.30
2022-10-28T01:36:45.285Z,22.38
2022-10-28T01:37:38.821Z,22.34
2022-10-28T01:38:42.635Z,22.40
2022-10-28T01:39:36.157Z,22.28
2022-10-28T01:40:29.715Z,22.33
2022-10-28T01:41:23.240Z,22.40
2022-10-28T01:42:16.774Z,22.31
2022-10-28T01:43:10.300Z,22.37
2022-10-28T01:44:14.085Z,22.40
2022-10-28T01:45:07.632Z,22.34
2022-10-28T01:46:01.170Z,22.31
2022-10-28T01:46:54.702Z,22.37
2022-10-28T01:47:48.306Z,22.41
2022-10-28T01:48:41.834Z,22.37
2022-10-28T01:49:35.363Z,22.30
2022-10-28T01:50:28.903Z,22.30
2022-10-28T01:51:22.433Z,22.33
2022-10-28T01:52:15.966Z,22.36
2022-10-28T01:53:09.507Z,22.34
2022-10-28T01:54:03.050Z,22.28
2022-10-28T01:54:56.568Z,22.30
2022-10-28T01:55:50.102Z,22.30
2022-10-28T01:56:43.628Z,22.28
2022-10-28T01:57:37.169Z,22.28
2022-10-28T01:58:30.780Z,22.34
2022-10-28T01:59:24.310Z,22.31
2022-10-28T02:00:17.842Z,22.34
2022-10-28T02:01:11.525Z,22.30
2022-10-28T02:01:55.165Z,22.33
2022-10-28T02:02:48.585Z,22.28
2022-10-28T02:03:42.133Z,22.31
2022-10-28T02:04:35.665Z,22.28
2022-10-28T02:05:29.194Z,22.25
2022-10-28T02:06:22.718Z,22.28
2022-10-28T02:07:16.277Z,22.34
2022-10-28T02:08:09.798Z,22.28
2022-10-28T02:08:53.534Z,22.34
2022-10-28T02:09:47.089Z,22.31
2022-10-28T02:10:40.626Z,22.31
2022-10-28T02:11:34.166Z,22.27
2022-10-28T02:12:27.732Z,22.27
2022-10-28T02:13:21.313Z,22.30
2022-10-28T02:14:14.849Z,22.34
2022-10-28T02:14:58.585Z,22.30
2022-10-28T02:15:52.094Z,22.36
2022-10-28T02:16:45.637Z,22.36
2022-10-28T02:17:50.035Z,22.27
2022-10-28T02:18:43.573Z,22.31
2022-10-28T02:19:37.113Z,22.28
2022-10-28T02:20:30.637Z,22.31
2022-10-28T02:21:14.313Z,22.30
2022-10-28T02:22:07.836Z,22.34
2022-10-28T02:23:01.368Z,22.31
2022-10-28T02:23:54.915Z,22.33
2022-10-28T02:24:48.458Z,22.31
2022-10-28T02:25:42.007Z,22.37
2022-10-28T02:26:35.517Z,22.25
2022-10-28T02:27:29.055Z,22.27
2022-10-28T02:28:12.715Z,22.27
2022-10-28T02:29:06.250Z,22.21
2022-10-28T02:29:49.907Z,22.34
2022-10-28T02:30:43.439Z,22.27
2022-10-28T02:31:37.011Z,22.25
2022-10-28T02:32:30.547Z,22.27
2022-10-28T02:33:24.110Z,22.31
2022-10-28T02:34:17.666Z,22.21
2022-10-28T02:35:01.359Z,22.27
2022-10-28T02:35:45.041Z,22.33
2022-10-28T02:36:38.561Z,22.30
2022-10-28T02:37:32.081Z,22.22
2022-10-28T02:38:25.608Z,22.25
2022-10-28T02:39:19.173Z,22.23
2022-10-28T02:40:12.709Z,22.33
2022-10-28T02:41:06.250Z,22.28
2022-10-28T02:41:59.768Z,22.30
2022-10-28T02:42:53.749Z,22.23
2022-10-28T02:43:46.858Z,22.27
2022-10-28T02:44:40.391Z,22.23
2022-10-28T02:45:33.923Z,22.28
2022-10-28T02:46:27.465Z,22.23
2022-10-28T02:47:11.115Z,22.25
2022-10-28T02:47:54.779Z,22.21
2022-10-28T02:48:48.321Z,22.21
2022-10-28T02:49:41.876Z,22.21
2022-10-28T02:50:35.403Z,22.33
2022-10-28T02:51:28.933Z,22.21
2022-10-28T02:52:22.471Z,22.23
2022-10-28T02:53:16.111Z,22.33
2022-10-28T02:54:09.558Z,22.33
2022-10-28T02:55:03.105Z,22.21
2022-10-28T02:55:56.635Z,22.23
2022-10-28T02:56:50.202Z,22.23
2022-10-28T02:57:43.706Z,22.16
2022-10-28T02:58:47.500Z,22.22
2022-10-28T02:59:41.043Z,22.19
2022-10-28T03:00:34.570Z,22.22
2022-10-28T03:01:28.255Z,22.21
2022-10-28T03:02:21.708Z,22.19
2022-10-28T03:03:15.176Z,22.19
2022-10-28T03:04:08.725Z,22.21
2022-10-28T03:05:02.259Z,22.21
2022-10-28T03:06:06.055Z,22.25
2022-10-28T03:07:09.836Z,22.25
2022-10-28T03:08:03.375Z,22.21
2022-10-28T03:08:47.027Z,22.21
2022-10-28T03:09:40.568Z,22.21
2022-10-28T03:10:34.111Z,22.27
2022-10-28T03:11:27.643Z,22.18
2022-10-28T03:12:21.191Z,22.21
2022-10-28T03:13:14.699Z,22.19
2022-10-28T03:14:10.734Z,22.19
2022-10-28T03:15:01.782Z,22.19
2022-10-28T03:15:55.316Z,22.16
2022-10-28T03:16:48.862Z,22.23
2022-10-28T03:17:42.395Z,22.23
2022-10-28T03:18:35.929Z,22.21
2022-10-28T03:19:29.453Z,22.21
2022-10-28T03:20:22.992Z,22.23
2022-10-28T03:21:16.530Z,22.23
2022-10-28T03:22:10.077Z,22.16
2022-10-28T03:23:03.617Z,22.21
2022-10-28T03:23:57.162Z,22.22
2022-10-28T03:24:50.689Z,22.16
2022-10-28T03:25:44.398Z,22.25
2022-10-28T03:26:37.929Z,22.21
2022-10-28T03:27:31.490Z,22.23
2022-10-28T03:28:25.008Z,22.25
2022-10-28T03:29:18.533Z,22.18
2022-10-28T03:30:12.059Z,22.19
2022-10-28T03:31:05.596Z,22.23
2022-10-28T03:31:59.119Z,22.22
2022-10-28T03:32:53.057Z,22.23
2022-10-28T03:33:46.194Z,22.23
2022-10-28T03:34:39.726Z,22.18
2022-10-28T03:35:33.251Z,22.21
2022-10-28T03:36:26.774Z,22.18
2022-10-28T03:37:20.297Z,22.21
2022-10-28T03:38:13.833Z,22.19
2022-10-28T03:39:07.361Z,22.22
2022-10-28T03:40:00.883Z,22.21
2022-10-28T03:40:54.410Z,22.18
2022-10-28T03:41:47.938Z,22.22
2022-10-28T03:42:41.536Z,22.19
2022-10-28T03:43:35.028Z,22.16
2022-10-28T03:44:28.557Z,22.18
2022-10-28T03:45:22.115Z,22.28
2022-10-28T03:46:15.603Z,22.25
2022-10-28T03:47:09.134Z,22.18
2022-10-28T03:48:12.934Z,22.16
2022-10-28T03:49:06.474Z,22.19
2022-10-28T03:49:59.992Z,22.30
2022-10-28T03:50:53.528Z,22.27
2022-10-28T03:51:47.088Z,22.23
2022-10-28T03:52:40.621Z,22.25
2022-10-28T03:53:34.148Z,22.34
2022-10-28T03:54:17.802Z,22.27
2022-10-28T03:55:11.323Z,22.30
2022-10-28T03:56:15.129Z,22.31
2022-10-28T03:57:08.676Z,22.28
2022-10-28T03:58:02.269Z,22.30
2022-10-28T03:58:55.782Z,22.36
2022-10-28T03:59:49.320Z,22.28
2022-10-28T04:00:32.976Z,22.28
2022-10-28T04:01:26.628Z,22.27
2022-10-28T04:02:20.129Z,22.33
2022-10-28T04:03:13.557Z,22.30
2022-10-28T04:03:57.228Z,22.36
2022-10-28T04:04:50.756Z,22.30
2022-10-28T04:05:44.285Z,22.28
2022-10-28T04:06:48.080Z,22.27
2022-10-28T04:07:51.886Z,22.36
2022-10-28T04:08:45.426Z,22.27
2022-10-28T04:09:38.961Z,22.25
2022-10-28T04:10:32.498Z,22.30
2022-10-28T04:11:26.037Z,22.30
2022-10-28T04:12:19.582Z,22.27
2022-10-28T04:13:13.131Z,22.23
2022-10-28T04:14:06.658Z,22.28
2022-10-28T04:15:00.189Z,22.31
2022-10-28T04:15:53.714Z,22.33
2022-10-28T04:16:47.242Z,22.34
2022-10-28T04:17:30.904Z,22.31
2022-10-28T04:18:24.433Z,22.33
2022-10-28T04:19:18.021Z,22.33
2022-10-28T04:20:11.559Z,22.43
2022-10-28T04:21:05.088Z,22.48
2022-10-28T04:21:58.622Z,22.37
2022-10-28T04:22:42.273Z,22.34
2022-10-28T04:23:35.806Z,22.34
2022-10-28T04:24:29.348Z,22.38
2022-10-28T04:25:22.892Z,22.37
2022-10-28T04:26:16.401Z,22.38
2022-10-28T04:27:09.936Z,22.46
2022-10-28T04:28:03.465Z,22.41
2022-10-28T04:28:57.021Z,22.43
2022-10-28T04:29:50.538Z,22.43
2022-10-28T04:30:44.077Z,22.46
2022-10-28T04:31:27.745Z,22.40
2022-10-28T04:32:21.269Z,22.41
2022-10-28T04:33:14.800Z,22.43
2022-10-28T04:34:08.328Z,22.44
2022-10-28T04:35:13.138Z,22.43
2022-10-28T04:36:06.663Z,22.43
2022-10-28T04:37:00.221Z,22.44
2022-10-28T04:37:54.235Z,22.49
2022-10-28T04:38:47.293Z,22.43
2022-10-28T04:39:51.091Z,22.40
2022-10-28T04:40:44.618Z,22.41
2022-10-28T04:41:48.405Z,22.41
2022-10-28T04:42:41.952Z,22.44
2022-10-28T04:43:35.481Z,22.44
2022-10-28T04:44:29.025Z,22.43
2022-10-28T04:45:22.534Z,22.44
2022-10-28T04:46:16.563Z,22.43
2022-10-28T04:47:10.088Z,22.44
2022-10-28T04:48:03.650Z,22.43
2022-10-28T04:48:57.172Z,22.46
2022-10-28T04:50:00.957Z,22.44
2022-10-28T04:50:54.491Z,22.41
2022-10-28T04:51:48.017Z,22.38
2022-10-28T04:52:42.194Z,22.49
2022-10-28T04:53:45.944Z,22.44
2022-10-28T04:54:39.506Z,22.41
2022-10-28T04:55:33.032Z,22.41
2022-10-28T04:56:36.820Z,22.52
2022-10-28T04:57:20.481Z,22.44
2022-10-28T04:58:14.055Z,22.37
2022-10-28T04:59:07.572Z,22.44
2022-10-28T05:00:01.113Z,22.41
2022-10-28T05:00:54.635Z,22.38
2022-10-28T05:01:48.243Z,22.46
2022-10-28T05:02:45.946Z,22.43
2022-10-28T05:03:35.226Z,22.46
2022-10-28T05:04:28.750Z,22.41
2022-10-28T05:05:22.288Z,22.46
2022-10-28T05:06:15.807Z,22.40
2022-10-28T05:07:10.351Z,22.40
2022-10-28T05:07:54.115Z,22.43
2022-10-28T05:08:47.377Z,22.49
2022-10-28T05:09:40.905Z,22.48
2022-10-28T05:10:34.447Z,22.53
2022-10-28T05:11:27.979Z,22.40
2022-10-28T05:12:21.510Z,22.53
2022-10-28T05:13:15.044Z,22.41
2022-10-28T05:14:08.577Z,22.53
2022-10-28T05:15:02.112Z,22.43
2022-10-28T05:15:55.660Z,22.38
2022-10-28T05:16:49.177Z,22.41
2022-10-28T05:17:42.710Z,22.41
2022-10-28T05:18:36.287Z,22.44
2022-10-28T05:19:29.773Z,22.44
2022-10-28T05:20:23.304Z,22.40
2022-10-28T05:21:16.828Z,22.41
2022-10-28T05:22:10.358Z,22.41
2022-10-28T05:23:03.905Z,22.44
2022-10-28T05:23:57.442Z,22.44
2022-10-28T05:24:50.974Z,22.51
2022-10-28T05:25:44.498Z,22.44
2022-10-28T05:26:38.030Z,22.41
2022-10-28T05:27:31.549Z,22.51
2022-10-28T05:28:25.083Z,22.48
2022-10-28T05:29:18.616Z,22.49
2022-10-28T05:30:12.139Z,22.49
2022-10-28T05:31:05.685Z,22.46
2022-10-28T05:31:59.257Z,22.51
2022-10-28T05:32:55.227Z,22.41
2022-10-28T05:33:46.241Z,22.49
2022-10-28T05:34:39.763Z,22.49
2022-10-28T05:35:33.407Z,22.44
2022-10-28T05:36:26.835Z,22.46
2022-10-28T05:37:20.359Z,22.49
2022-10-28T05:38:13.889Z,22.41
2022-10-28T05:39:07.429Z,22.44
2022-10-28T05:40:00.964Z,22.44
2022-10-28T05:40:54.492Z,22.43
2022-10-28T05:41:48.035Z,22.48
2022-10-28T05:42:41.564Z,22.41
2022-10-28T05:43:35.099Z,22.55
2022-10-28T05:44:28.623Z,22.58
2022-10-28T05:45:22.222Z,22.49
2022-10-28T05:46:15.726Z,22.52
2022-10-28T05:47:09.234Z,22.44
2022-10-28T05:48:02.761Z,22.44
2022-10-28T05:48:56.295Z,22.53
2022-10-28T05:49:49.852Z,22.40
2022-10-28T05:50:33.514Z,22.53
2022-10-28T05:51:27.054Z,22.46
2022-10-28T05:52:20.592Z,22.52
2022-10-28T05:53:04.256Z,22.48
2022-10-28T05:53:57.789Z,22.51
2022-10-28T05:54:51.309Z,22.53
2022-10-28T05:55:34.969Z,22.44
2022-10-28T05:56:28.510Z,22.53
2022-10-28T05:57:22.032Z,22.49
2022-10-28T05:58:15.557Z,22.56
2022-10-28T05:59:09.098Z,22.51
2022-10-28T06:00:02.620Z,22.51
2022-10-28T06:00:56.149Z,22.52
2022-10-28T06:01:49.802Z,22.53
2022-10-28T06:02:43.222Z,22.48
2022-10-28T06:03:36.789Z,22.41
2022-10-28T06:04:30.282Z,22.43
2022-10-28T06:05:23.806Z,22.40
2022-10-28T06:06:17.412Z,22.46
2022-10-28T06:07:10.867Z,22.40
2022-10-28T06:08:04.391Z,22.36
2022-10-28T06:08:57.913Z,22.36
2022-10-28T06:09:51.452Z,22.41
2022-10-28T06:10:44.982Z,22.30
2022-10-28T06:11:36.977Z,22.33
2022-10-28T06:12:30.566Z,22.31
2022-10-28T06:13:24.041Z,22.31
2022-10-28T06:14:17.559Z,22.33
2022-10-28T06:15:11.091Z,22.34
2022-10-28T06:16:04.627Z,22.27
2022-10-28T06:16:58.179Z,22.27
2022-10-28T06:17:51.690Z,22.30
2022-10-28T06:18:45.230Z,22.28
2022-10-28T06:19:38.756Z,21.93
2022-10-28T06:20:32.297Z,21.34
2022-10-28T06:21:25.822Z,20.92
2022-10-28T06:22:09.475Z,20.85
2022-10-28T06:23:03.004Z,20.77
2022-10-28T06:23:56.528Z,20.97
2022-10-28T06:24:50.055Z,21.25
2022-10-28T06:25:43.590Z,21.44
2022-10-28T06:26:37.117Z,21.63
2022-10-28T06:27:20.771Z,21.73
2022-10-28T06:28:14.300Z,21.81
2022-10-28T06:29:07.829Z,21.93
2022-10-28T06:30:01.354Z,21.94
2022-10-28T06:30:54.879Z,22.01
2022-10-28T06:31:48.995Z,22.04
2022-10-28T06:32:42.544Z,22.00
2022-10-28T06:33:36.064Z,22.07
2022-10-28T06:34:29.593Z,22.13
2022-10-28T06:35:23.171Z,22.15
2022-10-28T06:36:16.712Z,22.15
2022-10-28T06:37:00.380Z,22.13
2022-10-28T06:37:54.338Z,22.07
2022-10-28T06:38:47.441Z,22.15
2022-10-28T06:39:40.985Z,22.18
2022-10-28T06:40:34.514Z,22.18
2022-10-28T06:41:28.050Z,22.23
2022-10-28T06:42:21.591Z,22.19
2022-10-28T06:43:15.119Z,22.18
2022-10-28T06:44:08.662Z,22.19
2022-10-28T06:45:02.192Z,22.21
2022-10-28T06:45:55.763Z,22.28
2022-10-28T06:46:50.785Z,22.22
2022-10-28T06:47:44.310Z,22.25
2022-10-28T06:48:27.973Z,22.22
2022-10-28T06:49:21.491Z,22.30
2022-10-28T06:50:15.022Z,22.23
2022-10-28T06:51:08.558Z,22.25
2022-10-28T06:51:52.230Z,22.27
2022-10-28T06:53:39.293Z,22.25
2022-10-28T06:54:32.826Z,22.34
2022-10-28T06:55:26.351Z,22.28
2022-10-28T06:56:19.881Z,22.28
2022-10-28T06:57:13.410Z,22.28
2022-10-28T06:58:06.942Z,22.34
2022-10-28T06:59:00.465Z,22.30
2022-10-28T06:59:53.992Z,22.31
2022-10-28T07:00:47.531Z,22.27
2022-10-28T07:01:41.244Z,22.27
2022-10-28T07:02:34.687Z,22.15
2022-10-28T07:03:18.282Z,22.21
2022-10-28T07:04:22.174Z,22.22
2022-10-28T07:05:15.613Z,22.21
2022-10-28T07:06:09.218Z,22.28
2022-10-28T07:07:02.736Z,22.27
2022-10-28T07:07:56.430Z,22.36
2022-10-28T07:08:49.761Z,22.33
2022-10-28T07:09:43.296Z,22.30
2022-10-28T07:10:36.836Z,22.48
2022-10-28T07:11:30.362Z,22.46
2022-10-28T07:12:23.897Z,22.44
2022-10-28T07:13:17.433Z,22.44
2022-10-28T07:14:10.966Z,22.41
2022-10-28T07:14:54.617Z,22.37
2022-10-28T07:15:48.162Z,22.52
2022-10-28T07:16:41.704Z,22.49
2022-10-28T07:17:35.231Z,22.43
2022-10-28T07:18:28.765Z,22.43
2022-10-28T07:19:22.793Z,22.48
2022-10-28T07:20:15.849Z,22.52
2022-10-28T07:21:09.361Z,22.38
2022-10-28T07:22:02.895Z,22.40
2022-10-28T07:22:56.453Z,22.44
2022-10-28T07:23:49.982Z,22.43
2022-10-28T07:24:43.514Z,22.41
2022-10-28T07:25:37.041Z,22.49
2022-10-28T07:26:30.569Z,22.44
2022-10-28T07:27:24.100Z,22.48
2022-10-28T07:28:17.627Z,22.58
2022-10-28T07:29:11.156Z,22.53
2022-10-28T07:30:04.695Z,22.58
2022-10-28T07:30:58.278Z,22.49
2022-10-28T07:31:51.771Z,22.55
2022-10-28T07:32:45.301Z,22.52
2022-10-28T07:33:38.835Z,22.44
2022-10-28T07:34:32.370Z,22.46
2022-10-28T07:35:25.905Z,22.41
2022-10-28T07:36:19.425Z,22.44
2022-10-28T07:37:12.959Z,22.40
2022-10-28T07:38:06.494Z,22.51
2022-10-28T07:39:00.013Z,22.44
2022-10-28T07:39:53.544Z,22.40
2022-10-28T07:40:37.198Z,22.52
2022-10-28T07:41:20.858Z,22.56
2022-10-28T07:42:14.381Z,22.49
2022-10-28T07:43:07.917Z,22.55
2022-10-28T07:44:01.460Z,22.56
2022-10-28T07:44:45.121Z,22.55
2022-10-28T07:45:38.644Z,22.62
2022-10-28T07:46:32.180Z,22.55
2022-10-28T07:47:25.721Z,22.55
2022-10-28T07:48:19.253Z,22.51
2022-10-28T07:49:12.787Z,22.56
2022-10-28T07:50:06.335Z,22.56
2022-10-28T07:50:59.873Z,22.58
2022-10-28T07:51:53.387Z,22.64
2022-10-28T07:52:46.924Z,22.67
2022-10-28T07:53:40.462Z,22.68
2022-10-28T07:54:33.984Z,22.68
2022-10-28T07:55:27.537Z,22.66
2022-10-28T07:56:21.070Z,22.59
2022-10-28T07:57:14.594Z,22.58
2022-10-28T07:58:08.132Z,22.55
2022-10-28T07:59:01.653Z,22.58
2022-10-28T07:59:55.177Z,22.58
2022-10-28T08:00:48.751Z,22.55
2022-10-28T08:01:42.391Z,22.48
2022-10-28T08:02:35.772Z,22.58
2022-10-28T08:03:38.086Z,22.55
2022-10-28T08:04:22.830Z,22.48
2022-10-28T08:05:16.377Z,22.46
2022-10-28T08:06:09.901Z,22.48
2022-10-28T08:07:03.416Z,22.55
2022-10-28T08:07:57.138Z,22.46
2022-10-28T08:08:50.488Z,22.58
2022-10-28T08:09:34.145Z,22.49
2022-10-28T08:10:27.676Z,22.58
2022-10-28T08:11:21.196Z,22.55
2022-10-28T08:12:14.721Z,22.46
2022-10-28T08:13:18.505Z,22.59
2022-10-28T08:14:12.032Z,22.68
2022-10-28T08:15:05.570Z,22.70
2022-10-28T08:15:59.107Z,22.62
2022-10-28T08:16:52.635Z,22.62
2022-10-28T08:17:46.165Z,22.66
2022-10-28T08:18:39.689Z,22.58
2022-10-28T08:19:33.218Z,22.61
2022-10-28T08:20:26.747Z,22.59
2022-10-28T08:21:20.296Z,22.55
2022-10-28T08:22:13.802Z,22.55
2022-10-28T08:23:07.560Z,22.56
2022-10-28T08:24:00.867Z,22.55
2022-10-28T08:24:54.399Z,22.58
2022-10-28T08:25:47.942Z,22.62
2022-10-28T08:26:41.471Z,22.67
2022-10-28T08:27:34.999Z,22.77
2022-10-28T08:28:28.521Z,22.71
2022-10-28T08:29:25.077Z,22.68
2022-10-28T08:30:15.567Z,22.70
2022-10-28T08:31:08.412Z,22.78
2022-10-28T08:31:52.771Z,22.86
2022-10-28T08:32:46.310Z,22.89
2022-10-28T08:33:29.972Z,23.03
2022-10-28T08:34:23.492Z,22.98
2022-10-28T08:35:17.029Z,22.95
2022-10-28T08:36:10.557Z,22.91
2022-10-28T08:37:04.192Z,22.96
2022-10-28T08:37:57.632Z,23.03
2022-10-28T08:38:51.172Z,22.88
2022-10-28T08:39:44.698Z,22.95
2022-10-28T08:40:38.227Z,22.83
2022-10-28T08:41:31.767Z,22.88
2022-10-28T08:42:25.323Z,22.81
2022-10-28T08:43:20.718Z,22.67
2022-10-28T08:44:12.379Z,22.77
2022-10-28T08:45:05.908Z,22.71
2022-10-28T08:45:59.481Z,22.74
2022-10-28T08:46:52.976Z,22.81
2022-10-28T08:47:46.540Z,22.81
2022-10-28T08:48:40.022Z,22.81
2022-10-28T08:49:33.555Z,22.70
2022-10-28T08:50:27.099Z,22.86
2022-10-28T08:51:21.659Z,22.78
2022-10-28T08:52:15.377Z,22.77
2022-10-28T08:53:09.116Z,22.68
2022-10-28T08:54:03.866Z,22.76
2022-10-28T08:54:57.468Z,22.86
2022-10-28T08:55:51.086Z,22.81
2022-10-28T08:56:44.708Z,22.93
2022-10-28T08:57:39.279Z,22.92
2022-10-28T08:58:33.827Z,23.01
2022-10-28T08:59:27.423Z,23.03
2022-10-28T09:00:21.236Z,23.04
2022-10-28T09:01:14.884Z,23.01
2022-10-28T09:02:08.697Z,23.04
2022-10-28T09:03:02.323Z,23.03
2022-10-28T09:03:56.897Z,23.10
2022-10-28T09:04:51.435Z,23.13
2022-10-28T09:05:45.989Z,23.06
2022-10-28T09:06:40.594Z,23.15
2022-10-28T09:07:34.348Z,23.13
2022-10-28T09:08:28.047Z,23.08
2022-10-28T09:09:21.780Z,23.15
2022-10-28T09:10:15.398Z,23.11
2022-10-28T09:11:09.123Z,23.15
2022-10-28T09:12:03.681Z,23.14
2022-10-28T09:12:57.402Z,23.14
2022-10-28T09:13:51.125Z,23.11
2022-10-28T09:14:44.845Z,23.14
2022-10-28T09:15:38.504Z,23.14
2022-10-28T09:16:32.191Z,23.11
2022-10-28T09:17:25.917Z,23.08
2022-10-28T09:18:19.534Z,23.15
2022-10-28T09:19:13.272Z,23.13
2022-10-28T09:20:06.883Z,23.07
2022-10-28T09:21:00.506Z,23.13
2022-10-28T09:21:54.245Z,23.11
2022-10-28T09:22:47.973Z,23.13
2022-10-28T09:23:31.655Z,23.08
2022-10-28T09:24:25.390Z,23.10
2022-10-28T09:25:19.009Z,23.10
2022-10-28T09:26:12.731Z,23.10
2022-10-28T09:27:07.379Z,23.13
2022-10-28T09:28:01.094Z,23.11
2022-10-28T09:28:54.765Z,23.08
2022-10-28T09:29:49.307Z,23.15
2022-10-28T09:30:42.890Z,23.15
2022-10-28T09:31:36.516Z,23.21
2022-10-28T09:32:30.352Z,23.23
2022-10-28T09:33:23.959Z,23.18
2022-10-28T09:34:17.706Z,23.25
2022-10-28T09:35:11.415Z,23.23
2022-10-28T09:36:05.041Z,23.31
2022-10-28T09:36:58.765Z,23.31
2022-10-28T09:37:53.444Z,23.28
2022-10-28T09:38:47.249Z,23.22
2022-10-28T09:39:40.967Z,23.31
2022-10-28T09:40:34.798Z,23.29
2022-10-28T09:41:28.416Z,23.39
2022-10-28T09:42:22.139Z,23.37
2022-10-28T09:43:15.760Z,23.46
2022-10-28T09:44:09.393Z,23.51
2022-10-28T09:45:03.008Z,23.42
2022-10-28T09:45:57.664Z,23.45
2022-10-28T09:46:51.383Z,23.54
2022-10-28T09:47:46.032Z,23.44
2022-10-28T09:48:39.648Z,23.41
2022-10-28T09:49:33.275Z,23.54
2022-10-28T09:50:26.894Z,23.55
2022-10-28T09:51:21.455Z,23.55
2022-10-28T09:52:16.994Z,23.55
2022-10-28T09:53:10.651Z,23.60
2022-10-28T09:54:04.254Z,23.54
2022-10-28T09:54:58.869Z,23.59
2022-10-28T09:55:53.451Z,23.63
2022-10-28T09:56:47.084Z,23.66
2022-10-28T09:57:40.898Z,23.71
2022-10-28T09:58:34.729Z,23.69
2022-10-28T09:59:28.346Z,23.74
2022-10-28T10:00:22.081Z,23.71
2022-10-28T10:01:15.864Z,23.66
2022-10-28T10:02:10.599Z,23.44
2022-10-28T10:03:04.303Z,23.41
2022-10-28T10:03:58.829Z,23.49
2022-10-28T10:04:52.429Z,23.37
2022-10-28T10:05:46.064Z,23.36
2022-10-28T10:06:29.752Z,23.39
2022-10-28T10:07:23.374Z,23.44
2022-10-28T10:08:17.013Z,23.55
2022-10-28T10:09:10.621Z,23.60
2022-10-28T10:10:58.896Z,23.54
2022-10-28T10:11:53.540Z,23.63
2022-10-28T10:12:51.408Z,23.60
2022-10-28T10:13:42.747Z,23.63
2022-10-28T10:14:36.474Z,23.61
2022-10-28T10:15:31.017Z,23.63
2022-10-28T10:16:24.624Z,23.64
2022-10-28T10:17:18.363Z,23.60
2022-10-28T10:18:12.078Z,23.64
2022-10-28T10:19:06.729Z,23.67
2022-10-28T10:20:01.489Z,23.60
2022-10-28T10:20:55.111Z,23.61
2022-10-28T10:21:49.652Z,23.61
2022-10-28T10:22:44.209Z,23.64
2022-10-28T10:24:32.552Z,23.60
2022-10-28T10:25:27.100Z,23.61
2022-10-28T10:26:20.832Z,23.64
2022-10-28T10:27:14.654Z,23.56
2022-10-28T10:28:08.272Z,23.70
2022-10-28T10:29:01.889Z,23.61
2022-10-28T10:29:56.032Z,23.63
2022-10-28T10:30:50.676Z,23.64
2022-10-28T10:31:44.398Z,23.64
2022-10-28T10:32:38.123Z,23.63
2022-10-28T10:33:31.862Z,23.63
2022-10-28T10:34:25.674Z,23.61
2022-10-28T10:35:20.449Z,23.63
2022-10-28T10:36:14.078Z,23.61
2022-10-28T10:37:08.732Z,23.67
2022-10-28T10:38:02.521Z,23.59
2022-10-28T10:38:57.121Z,23.66
2022-10-28T10:39:50.682Z,23.60
2022-10-28T10:40:44.923Z,23.60
2022-10-28T10:41:38.552Z,23.66
2022-10-28T10:42:32.170Z,23.64
2022-10-28T10:43:25.798Z,23.63
2022-10-28T10:44:20.357Z,23.70
2022-10-28T10:45:14.067Z,23.64
2022-10-28T10:46:08.729Z,23.70
2022-10-28T10:47:06.009Z,23.73
2022-10-28T10:47:56.449Z,23.70
2022-10-28T10:48:49.793Z,23.74
2022-10-28T10:49:43.407Z,23.73
2022-10-28T10:50:37.031Z,23.74
2022-10-28T10:51:31.602Z,23.78
2022-10-28T10:52:26.310Z,23.79
2022-10-28T10:53:19.762Z,23.78
2022-10-28T10:54:14.477Z,23.76
2022-10-28T10:55:08.119Z,23.79
2022-10-28T10:56:02.659Z,23.81
2022-10-28T10:57:50.106Z,23.82
2022-10-28T10:58:44.653Z,23.82
2022-10-28T10:59:38.381Z,23.86
2022-10-28T11:00:32.942Z,23.78
2022-10-28T11:01:26.885Z,23.89
2022-10-28T11:02:20.734Z,23.82
2022-10-28T11:03:14.199Z,23.85
2022-10-28T11:04:08.752Z,23.76
2022-10-28T11:05:02.472Z,23.81
2022-10-28T11:05:48.047Z,23.86
2022-10-28T11:06:40.923Z,23.86
2022-10-28T11:07:34.706Z,23.86
2022-10-28T11:08:29.279Z,23.81
2022-10-28T11:09:24.054Z,23.81
2022-10-28T11:10:17.665Z,23.74
2022-10-28T11:11:11.279Z,23.78
2022-10-28T11:12:05.676Z,23.81
2022-10-28T11:12:58.628Z,23.74
2022-10-28T11:13:52.249Z,23.88
2022-10-28T11:14:46.806Z,23.88
2022-10-28T11:15:40.636Z,23.91
2022-10-28T11:16:34.565Z,23.97
2022-10-28T11:17:28.388Z,23.92
2022-10-28T11:18:21.935Z,23.98
2022-10-28T11:19:15.565Z,24.03
2022-10-28T11:19:59.237Z,24.11
2022-10-28T11:20:42.909Z,24.08
2022-10-28T11:21:36.510Z,24.11
2022-10-28T11:22:30.077Z,24.13
2022-10-28T11:23:23.678Z,24.11
2022-10-28T11:24:17.348Z,24.16
2022-10-28T11:25:10.972Z,24.21
2022-10-28T11:26:04.705Z,24.21
2022-10-28T11:26:48.492Z,24.11
2022-10-28T11:27:42.048Z,24.21
2022-10-28T11:28:35.594Z,24.21
2022-10-28T11:29:29.140Z,24.26
2022-10-28T11:30:22.752Z,24.33